7AL2 weather

Peterson Field
Steele, Alabama, United States

Public forecast

Using degrees Fahrenheit for public forecast. Weather courtesy of forecast.io.

Closest aviation weather report (METAR) to Peterson Field

Closest report is Northeast Alabama Regional Airport, 12.8 nm (23.7 km) ENE. Retrieved 2019/10/24 00:56 UTC (26 minutes ago):

KGAD 240056Z AUTO 00000KT 10SM CLR 09/06 A3019 RMK AO2 SLP228 T00940061

Closest aviation forecast (TAF) to Peterson Field

Closest forecast is Talladega Municipal Airport, 22.0 nm (40.7 km) SE. Retrieved 2019-10-24 00:22 UTC (60 minutes ago):

TAF KASN 232320Z 2400/2424 00000KT P6SM SKC FM241500 08006KT P6SM FEW250